createdAt,value
2023-05-09T00:01:45.161Z,8.20
2023-05-09T00:04:11.917Z,8.30
2023-05-09T00:06:38.927Z,8.32
2023-05-09T00:09:05.753Z,8.40
2023-05-09T00:11:32.507Z,7.85
2023-05-09T00:13:59.171Z,8.00
2023-05-09T00:16:25.947Z,7.43
2023-05-09T00:18:52.852Z,7.85
2023-05-09T00:21:19.700Z,7.13
2023-05-09T00:23:47.654Z,7.22
2023-05-09T00:26:14.402Z,7.38
2023-05-09T00:28:43.293Z,8.45
2023-05-09T00:31:10.207Z,7.68
2023-05-09T00:33:36.911Z,8.68
2023-05-09T00:36:04.127Z,8.45
2023-05-09T00:38:30.882Z,8.50
2023-05-09T00:40:57.584Z,7.45
2023-05-09T00:43:24.341Z,7.57
2023-05-09T00:45:51.425Z,7.93
2023-05-09T00:48:18.392Z,7.53
2023-05-09T00:50:46.240Z,7.78
2023-05-09T00:53:13.520Z,8.02
2023-05-09T00:55:40.539Z,7.50
2023-05-09T00:58:07.481Z,7.60
2023-05-09T01:00:34.186Z,8.00
2023-05-09T01:03:01.631Z,8.48
2023-05-09T01:05:40.598Z,7.80
2023-05-09T01:08:23.536Z,7.63
2023-05-09T01:11:08.988Z,8.57
2023-05-09T01:13:44.611Z,8.50
2023-05-09T01:16:26.397Z,7.95
2023-05-09T01:19:18.770Z,8.23
2023-05-09T01:21:48.323Z,7.55
2023-05-09T01:24:45.363Z,8.10
2023-05-09T01:27:32.856Z,8.35
2023-05-09T01:30:04.512Z,7.80
2023-05-09T01:32:33.748Z,9.23
2023-05-09T01:35:02.805Z,8.30
2023-05-09T01:37:32.723Z,8.20
2023-05-09T01:40:06.050Z,8.10
2023-05-09T01:42:41.517Z,8.13
2023-05-09T01:45:09.898Z,8.15
2023-05-09T01:47:39.760Z,8.70
2023-05-09T01:50:09.089Z,8.77
2023-05-09T01:52:37.103Z,8.13
2023-05-09T01:55:07.351Z,8.73
2023-05-09T01:57:35.764Z,9.88
2023-05-09T02:00:03.714Z,10.02
2023-05-09T02:02:40.319Z,10.95
2023-05-09T02:05:09.821Z,10.60
2023-05-09T02:07:38.743Z,11.05
2023-05-09T02:10:08.595Z,10.88
2023-05-09T02:12:37.463Z,10.63
2023-05-09T02:15:05.665Z,9.93
2023-05-09T02:17:32.847Z,10.63
2023-05-09T02:19:59.717Z,9.80
2023-05-09T02:22:26.825Z,10.13
2023-05-09T02:24:53.531Z,11.95
2023-05-09T02:27:21.633Z,12.35
2023-05-09T02:29:51.676Z,12.23
2023-05-09T02:32:27.025Z,12.50
2023-05-09T02:34:55.813Z,12.95
2023-05-09T02:37:24.334Z,12.15
2023-05-09T02:39:51.896Z,13.07
2023-05-09T02:42:22.871Z,12.80
2023-05-09T02:44:49.584Z,12.40
2023-05-09T02:47:16.509Z,12.70
2023-05-09T02:49:43.343Z,13.85
2023-05-09T02:52:11.011Z,13.32
2023-05-09T02:54:38.441Z,11.77
2023-05-09T02:57:05.502Z,13.07
2023-05-09T02:59:32.360Z,14.30
2023-05-09T03:02:01.882Z,13.32
2023-05-09T03:04:29.454Z,13.98
2023-05-09T03:06:56.302Z,12.32
2023-05-09T03:09:26.222Z,14.35
2023-05-09T03:11:52.988Z,14.57
2023-05-09T03:14:20.564Z,14.02
2023-05-09T03:16:47.444Z,13.23
2023-05-09T03:19:23.133Z,15.23
2023-05-09T03:21:50.001Z,14.90
2023-05-09T03:24:17.272Z,14.73
2023-05-09T03:26:44.230Z,14.80
2023-05-09T03:29:11.528Z,14.57
2023-05-09T03:31:39.046Z,14.13
2023-05-09T03:34:06.319Z,14.32
2023-05-09T03:36:33.309Z,14.35
2023-05-09T03:39:01.393Z,15.00
2023-05-09T03:41:28.221Z,14.10
2023-05-09T03:43:55.902Z,13.57
2023-05-09T03:46:22.699Z,15.38
2023-05-09T03:48:49.781Z,15.07
2023-05-09T03:51:17.216Z,15.48
2023-05-09T03:53:47.184Z,14.23
2023-05-09T03:56:15.328Z,15.57
2023-05-09T03:58:47.485Z,15.32
2023-05-09T04:01:15.776Z,15.50
2023-05-09T04:03:43.138Z,16.38
2023-05-09T04:06:11.057Z,16.45
2023-05-09T04:08:42.789Z,16.30
2023-05-09T04:11:09.826Z,17.80
2023-05-09T04:13:38.608Z,16.90
2023-05-09T04:16:13.550Z,17.52
2023-05-09T04:18:42.279Z,18.33
2023-05-09T04:21:09.480Z,16.88
2023-05-09T04:23:38.615Z,16.23
2023-05-09T04:26:05.537Z,18.55
2023-05-09T04:28:32.270Z,20.20
2023-05-09T04:30:59.555Z,18.77
2023-05-09T04:33:29.276Z,17.80
2023-05-09T04:36:00.341Z,20.75
2023-05-09T04:38:27.657Z,18.55
2023-05-09T04:40:54.579Z,19.60
2023-05-09T04:43:21.476Z,19.30
2023-05-09T04:45:48.296Z,20.52
2023-05-09T04:48:15.990Z,19.98
2023-05-09T04:50:43.319Z,18.77
2023-05-09T04:53:11.217Z,20.13
2023-05-09T04:55:38.574Z,18.70
2023-05-09T04:58:05.919Z,18.75
2023-05-09T05:00:32.667Z,19.10
2023-05-09T05:02:59.576Z,18.67
2023-05-09T05:05:28.011Z,18.17
2023-05-09T05:07:55.171Z,19.48
2023-05-09T05:10:26.300Z,19.90
2023-05-09T05:13:01.439Z,19.70
2023-05-09T05:15:28.256Z,19.15
2023-05-09T05:17:55.851Z,20.27
2023-05-09T05:20:28.308Z,19.77
2023-05-09T05:22:55.967Z,18.10
2023-05-09T05:25:23.476Z,19.80
2023-05-09T05:27:51.994Z,18.73
2023-05-09T05:30:18.865Z,20.73
2023-05-09T05:32:45.965Z,19.95
2023-05-09T05:35:15.940Z,19.25
2023-05-09T05:37:44.221Z,19.92
2023-05-09T05:40:11.682Z,20.13
2023-05-09T05:42:42.002Z,19.77
2023-05-09T05:45:11.042Z,19.38
2023-05-09T05:47:41.002Z,20.13
2023-05-09T05:50:11.635Z,17.80
2023-05-09T05:52:41.799Z,20.95
2023-05-09T05:55:12.176Z,20.30
2023-05-09T05:57:39.402Z,19.92
2023-05-09T06:00:12.217Z,19.83
2023-05-09T06:02:50.114Z,18.55
2023-05-09T06:05:25.675Z,18.77
2023-05-09T06:07:52.845Z,19.92
2023-05-09T06:10:19.800Z,19.23
2023-05-09T06:12:46.837Z,17.90
2023-05-09T06:15:13.841Z,19.42
2023-05-09T06:17:44.826Z,19.90
2023-05-09T06:20:11.620Z,20.67
2023-05-09T06:22:38.468Z,19.85
2023-05-09T06:25:08.027Z,20.98
2023-05-09T06:27:36.417Z,18.83
2023-05-09T06:30:14.032Z,19.92
2023-05-09T06:32:44.628Z,20.38
2023-05-09T06:35:11.365Z,21.73
2023-05-09T06:37:38.188Z,21.65
2023-05-09T06:40:05.486Z,20.15
2023-05-09T06:42:33.760Z,24.95
2023-05-09T06:45:00.824Z,20.67
2023-05-09T06:47:27.602Z,19.20
2023-05-09T06:49:54.541Z,21.13
2023-05-09T06:52:21.594Z,19.60
2023-05-09T06:54:48.373Z,19.17
2023-05-09T06:57:15.673Z,20.63
2023-05-09T06:59:42.490Z,19.65
2023-05-09T07:02:09.199Z,20.63
2023-05-09T07:04:35.954Z,20.88
2023-05-09T07:07:02.668Z,19.77
2023-05-09T07:09:29.578Z,19.63
2023-05-09T07:11:57.025Z,18.73
2023-05-09T07:14:23.779Z,18.92
2023-05-09T07:16:50.713Z,20.17
2023-05-09T07:19:17.539Z,19.98
2023-05-09T07:21:44.680Z,20.88
2023-05-09T07:24:11.345Z,20.20
2023-05-09T07:26:38.073Z,20.33
2023-05-09T07:29:04.978Z,21.05
2023-05-09T07:31:31.842Z,21.15
2023-05-09T07:33:58.526Z,22.50
2023-05-09T07:36:25.333Z,21.75
2023-05-09T07:38:53.422Z,21.10
2023-05-09T07:41:20.538Z,21.90
2023-05-09T07:43:47.242Z,23.05
2023-05-09T07:46:13.985Z,23.27
2023-05-09T07:48:40.722Z,21.33
2023-05-09T07:51:07.405Z,23.20
2023-05-09T07:53:34.122Z,25.60
2023-05-09T07:56:00.931Z,23.30
2023-05-09T07:58:27.572Z,25.52
2023-05-09T08:00:56.801Z,25.63
2023-05-09T08:03:23.616Z,25.40
2023-05-09T08:05:54.573Z,25.20
2023-05-09T08:08:21.485Z,26.15
2023-05-09T08:10:48.138Z,26.52
2023-05-09T08:13:14.963Z,27.45
2023-05-09T08:15:42.029Z,28.02
2023-05-09T08:18:08.928Z,27.33
2023-05-09T08:20:36.171Z,27.92
2023-05-09T08:23:02.839Z,27.45
2023-05-09T08:25:29.726Z,27.90
2023-05-09T08:27:56.495Z,29.10
2023-05-09T08:30:23.207Z,29.20
2023-05-09T08:32:49.893Z,29.42
2023-05-09T08:35:16.999Z,30.00
2023-05-09T08:37:44.238Z,29.52
2023-05-09T08:40:11.366Z,30.08
2023-05-09T08:42:38.652Z,31.80
2023-05-09T08:45:10.756Z,32.53
2023-05-09T08:47:38.481Z,30.52
2023-05-09T08:50:06.051Z,30.25
2023-05-09T08:52:33.637Z,32.75
2023-05-09T08:55:01.591Z,30.23
2023-05-09T08:57:28.521Z,30.42
2023-05-09T08:59:59.854Z,32.28
2023-05-09T09:02:26.748Z,32.15
2023-05-09T09:04:54.957Z,32.17
2023-05-09T09:07:22.534Z,33.92
2023-05-09T09:09:50.116Z,34.15
2023-05-09T09:12:17.557Z,34.40
2023-05-09T09:14:50.142Z,32.58
2023-05-09T09:17:20.580Z,33.85
2023-05-09T09:19:50.294Z,34.50
2023-05-09T09:22:20.379Z,34.58
2023-05-09T09:24:47.302Z,34.95
2023-05-09T09:27:14.025Z,35.17
2023-05-09T09:29:40.823Z,32.72
2023-05-09T09:32:07.774Z,34.00
2023-05-09T09:34:34.638Z,35.38
2023-05-09T09:37:01.545Z,33.33
2023-05-09T09:39:28.312Z,34.13
2023-05-09T09:41:55.114Z,31.63
2023-05-09T09:44:22.874Z,33.60
2023-05-09T09:46:53.538Z,34.30
2023-05-09T09:49:26.124Z,34.17
2023-05-09T09:51:54.974Z,35.35
2023-05-09T09:54:22.304Z,36.05
2023-05-09T09:56:54.785Z,36.80
2023-05-09T09:59:24.944Z,37.33
2023-05-09T10:02:05.849Z,37.95
2023-05-09T10:04:39.114Z,38.17
2023-05-09T10:07:12.884Z,37.50
2023-05-09T10:09:41.523Z,37.83
2023-05-09T10:12:09.034Z,38.92
2023-05-09T10:14:36.587Z,40.95
2023-05-09T10:17:05.660Z,39.90
2023-05-09T10:19:33.052Z,43.85
2023-05-09T10:22:11.620Z,42.80
2023-05-09T10:24:49.733Z,40.80
2023-05-09T10:27:21.055Z,45.67
2023-05-09T10:30:12.340Z,45.70
2023-05-09T10:32:46.168Z,50.42
2023-05-09T10:35:17.071Z,46.63
2023-05-09T10:37:45.446Z,47.63
2023-05-09T10:40:15.870Z,47.97
2023-05-09T10:42:43.591Z,47.10
2023-05-09T10:45:12.492Z,49.58
2023-05-09T10:47:41.486Z,48.05
2023-05-09T10:50:10.049Z,47.47
2023-05-09T10:53:07.193Z,46.20
2023-05-09T10:55:50.835Z,46.20
2023-05-09T10:58:28.794Z,49.65
2023-05-09T11:01:00.159Z,48.20
2023-05-09T11:03:28.948Z,49.47
2023-05-09T11:05:57.504Z,46.25
2023-05-09T11:08:29.140Z,50.92
2023-05-09T11:10:57.454Z,47.38
2023-05-09T11:13:26.107Z,48.50
2023-05-09T11:16:02.097Z,48.63
2023-05-09T11:18:29.638Z,48.25
2023-05-09T11:20:56.824Z,46.72
2023-05-09T11:23:27.871Z,45.67
2023-05-09T11:26:06.541Z,46.45
2023-05-09T11:28:35.513Z,45.22
2023-05-09T11:31:18.764Z,45.28
2023-05-09T11:33:49.156Z,44.10
2023-05-09T11:36:24.992Z,43.72
2023-05-09T11:39:01.538Z,44.65
2023-05-09T11:41:28.996Z,42.53
2023-05-09T11:43:56.872Z,45.60
2023-05-09T11:46:23.835Z,45.15
2023-05-09T11:48:50.550Z,47.60
2023-05-09T11:51:18.637Z,48.85
2023-05-09T11:53:49.657Z,51.13
2023-05-09T11:56:17.313Z,52.83
2023-05-09T11:58:44.140Z,54.38
2023-05-09T12:01:12.532Z,54.75
2023-05-09T12:03:46.228Z,53.28
2023-05-09T12:06:17.109Z,52.22
2023-05-09T12:08:47.966Z,49.63
2023-05-09T12:11:15.468Z,48.80
2023-05-09T12:13:49.467Z,54.53
2023-05-09T12:16:17.419Z,50.63
2023-05-09T12:18:45.880Z,46.78
2023-05-09T12:21:12.730Z,49.25
2023-05-09T12:23:39.621Z,44.03
2023-05-09T12:26:06.911Z,41.85
2023-05-09T12:28:35.443Z,42.10
2023-05-09T12:31:02.890Z,42.95
2023-05-09T12:33:30.845Z,40.70
2023-05-09T12:36:12.993Z,44.38
2023-05-09T12:38:39.982Z,43.38
2023-05-09T12:41:15.527Z,42.45
2023-05-09T12:43:50.773Z,40.08
2023-05-09T12:46:22.030Z,39.05
2023-05-09T12:48:49.328Z,41.28
2023-05-09T12:51:20.660Z,39.40
2023-05-09T12:53:47.916Z,42.88
2023-05-09T12:56:20.223Z,41.55
2023-05-09T13:01:19.270Z,42.70
2023-05-09T13:04:01.675Z,46.30
2023-05-09T13:06:28.724Z,44.35
2023-05-09T13:09:00.442Z,46.03
2023-05-09T13:11:27.732Z,44.25
2023-05-09T13:13:55.089Z,45.25
2023-05-09T13:16:21.968Z,46.85
2023-05-09T13:18:48.703Z,44.58
2023-05-09T13:21:15.619Z,44.45
2023-05-09T13:23:42.347Z,44.30
2023-05-09T13:26:10.410Z,43.13
2023-05-09T13:28:37.285Z,43.30
2023-05-09T13:31:04.188Z,42.67
2023-05-09T13:33:31.015Z,41.38
2023-05-09T13:35:57.749Z,41.67
2023-05-09T13:38:25.788Z,39.00
2023-05-09T13:40:52.554Z,41.17
2023-05-09T13:43:19.285Z,41.15
2023-05-09T13:45:46.087Z,42.47
2023-05-09T13:48:12.872Z,44.55
2023-05-09T13:50:40.272Z,43.05
2023-05-09T13:53:06.948Z,43.03
2023-05-09T13:55:34.607Z,41.78
2023-05-09T13:58:01.643Z,42.13
2023-05-09T14:00:28.595Z,41.33
2023-05-09T14:02:55.317Z,40.92
2023-05-09T14:05:22.648Z,40.90
2023-05-09T14:07:49.480Z,40.35
2023-05-09T14:10:17.638Z,41.20
2023-05-09T14:12:45.474Z,38.35
2023-05-09T14:15:12.452Z,33.55
2023-05-09T14:17:39.950Z,24.17
2023-05-09T14:20:07.251Z,22.40
2023-05-09T14:22:33.962Z,22.58
2023-05-09T14:25:00.667Z,22.17
2023-05-09T14:27:27.515Z,22.05
2023-05-09T14:29:54.379Z,20.52
2023-05-09T14:32:21.137Z,20.98
2023-05-09T14:34:49.635Z,21.77
2023-05-09T14:37:16.850Z,19.60
2023-05-09T14:39:45.221Z,19.52
2023-05-09T14:42:13.932Z,19.42
2023-05-09T14:44:41.527Z,19.75
2023-05-09T14:47:09.546Z,20.58
2023-05-09T14:49:37.722Z,20.25
2023-05-09T14:52:04.651Z,19.92
2023-05-09T14:54:31.531Z,20.17
2023-05-09T14:56:59.610Z,20.00
2023-05-09T14:59:26.404Z,19.77
2023-05-09T15:01:53.655Z,19.95
2023-05-09T15:04:20.384Z,18.98
2023-05-09T15:06:47.171Z,18.77
2023-05-09T15:09:14.652Z,17.60
2023-05-09T15:11:47.609Z,18.38
2023-05-09T15:14:15.112Z,20.52
2023-05-09T15:16:42.147Z,18.75
2023-05-09T15:19:09.089Z,19.33
2023-05-09T15:21:35.941Z,18.80
2023-05-09T15:24:04.901Z,19.42
2023-05-09T15:26:32.081Z,19.65
2023-05-09T15:29:02.510Z,18.85
2023-05-09T15:31:33.546Z,18.92
2023-05-09T15:34:01.418Z,18.15
2023-05-09T15:36:32.057Z,17.33
2023-05-09T15:38:58.894Z,16.17
2023-05-09T15:41:25.787Z,14.88
2023-05-09T15:43:52.847Z,14.65
2023-05-09T15:46:19.614Z,14.85
2023-05-09T15:48:46.498Z,14.82
2023-05-09T15:51:14.990Z,14.85
2023-05-09T15:53:41.912Z,14.38
2023-05-09T15:56:08.927Z,13.48
2023-05-09T15:58:36.025Z,13.75
2023-05-09T16:01:06.077Z,13.05
2023-05-09T16:03:33.034Z,12.50
2023-05-09T16:06:00.260Z,11.93
2023-05-09T16:08:27.332Z,12.45
2023-05-09T16:10:54.289Z,12.25
2023-05-09T16:13:21.298Z,12.55
2023-05-09T16:15:49.900Z,12.25
2023-05-09T16:18:16.671Z,12.45
2023-05-09T16:20:44.018Z,11.85
2023-05-09T16:23:11.433Z,11.68
2023-05-09T16:25:38.287Z,12.15
2023-05-09T16:28:06.890Z,12.60
2023-05-09T16:30:33.810Z,11.85
2023-05-09T16:33:00.719Z,10.93
2023-05-09T16:35:27.503Z,11.27
2023-05-09T16:37:54.156Z,10.23
2023-05-09T16:40:21.198Z,9.20
2023-05-09T16:42:48.088Z,10.32
2023-05-09T16:45:14.829Z,10.02
2023-05-09T16:47:41.556Z,6.72
2023-05-09T16:50:10.161Z,5.85
2023-05-09T16:52:37.122Z,5.35
2023-05-09T16:55:04.350Z,5.03
2023-05-09T16:57:31.064Z,4.85
2023-05-09T16:59:58.462Z,4.78
2023-05-09T17:02:25.310Z,4.18
2023-05-09T17:04:52.454Z,4.90
2023-05-09T17:07:19.232Z,4.32
2023-05-09T17:09:46.416Z,4.38
2023-05-09T17:12:17.431Z,4.22
2023-05-09T17:14:48.005Z,4.78
2023-05-09T17:17:17.489Z,4.57
2023-05-09T17:19:44.237Z,4.93
2023-05-09T17:22:11.226Z,4.93
2023-05-09T17:24:37.974Z,4.10
2023-05-09T17:27:04.960Z,4.65
2023-05-09T17:29:31.772Z,4.25
2023-05-09T17:32:01.979Z,4.78
2023-05-09T17:34:29.121Z,3.58
2023-05-09T17:36:56.281Z,4.03
2023-05-09T17:39:23.129Z,4.95
2023-05-09T17:41:49.828Z,4.85
2023-05-09T17:44:16.671Z,4.20
2023-05-09T17:46:44.004Z,4.18
2023-05-09T17:49:13.680Z,4.57
2023-05-09T17:51:40.786Z,4.75
2023-05-09T17:54:07.641Z,4.82
2023-05-09T17:56:34.744Z,5.10
2023-05-09T17:59:01.518Z,4.50
2023-05-09T18:01:34.291Z,4.35
2023-05-09T18:04:01.328Z,4.72
2023-05-09T18:06:28.874Z,4.70
2023-05-09T18:08:55.711Z,4.43
2023-05-09T18:11:22.766Z,4.20
2023-05-09T18:13:49.545Z,4.45
2023-05-09T18:16:16.240Z,4.78
2023-05-09T18:18:44.867Z,4.03
2023-05-09T18:21:11.673Z,4.70
2023-05-09T18:23:38.631Z,4.50
2023-05-09T18:26:05.337Z,4.28
2023-05-09T18:28:38.978Z,4.15
2023-05-09T18:31:09.221Z,4.10
2023-05-09T18:33:36.761Z,4.03
2023-05-09T18:36:04.090Z,4.00
2023-05-09T18:38:34.655Z,4.30
2023-05-09T18:41:01.709Z,4.32
2023-05-09T18:43:29.749Z,4.32
2023-05-09T18:45:56.455Z,4.07
2023-05-09T18:48:23.177Z,4.32
2023-05-09T18:50:52.629Z,4.72
2023-05-09T18:53:19.741Z,3.90
2023-05-09T18:55:46.988Z,3.85
2023-05-09T18:58:13.862Z,3.45
2023-05-09T19:00:40.739Z,3.58
2023-05-09T19:03:10.755Z,3.53
2023-05-09T19:05:37.502Z,3.78
2023-05-09T19:08:04.520Z,3.42
2023-05-09T19:10:31.487Z,3.45
2023-05-09T19:12:59.242Z,3.15
2023-05-09T19:15:26.647Z,3.33
2023-05-09T19:17:53.729Z,3.65
2023-05-09T19:20:20.867Z,3.47
2023-05-09T19:22:51.213Z,3.53
2023-05-09T19:25:22.566Z,3.80
2023-05-09T19:27:49.508Z,4.40
2023-05-09T19:30:17.047Z,4.78
2023-05-09T19:32:44.591Z,4.47
2023-05-09T19:35:11.728Z,4.28
2023-05-09T19:37:38.536Z,4.68
2023-05-09T19:40:06.277Z,5.95
2023-05-09T19:42:34.131Z,4.82
2023-05-09T19:45:01.524Z,4.97
2023-05-09T19:47:28.267Z,4.25
2023-05-09T19:49:55.030Z,5.30
2023-05-09T19:52:23.210Z,4.80
2023-05-09T19:54:50.324Z,5.03
2023-05-09T19:57:17.667Z,5.03
2023-05-09T19:59:44.747Z,5.30
2023-05-09T20:02:11.643Z,5.22
2023-05-09T20:04:46.499Z,5.00
2023-05-09T20:07:16.569Z,4.57
2023-05-09T20:09:43.519Z,4.65
2023-05-09T20:12:10.515Z,4.93
2023-05-09T20:14:37.251Z,5.47
2023-05-09T20:17:05.162Z,4.70
2023-05-09T20:19:33.034Z,5.07
2023-05-09T20:22:01.139Z,4.63
2023-05-09T20:24:27.993Z,5.28
2023-05-09T20:26:55.182Z,5.05
2023-05-09T20:29:23.967Z,5.97
2023-05-09T20:31:50.820Z,5.28
2023-05-09T20:34:22.349Z,6.00
2023-05-09T20:36:53.104Z,5.38
2023-05-09T20:39:20.628Z,5.93
2023-05-09T20:41:49.010Z,6.07
2023-05-09T20:44:16.794Z,5.95
2023-05-09T20:46:44.982Z,6.13
2023-05-09T20:49:12.365Z,6.15
2023-05-09T20:51:39.320Z,6.90
2023-05-09T20:54:06.424Z,6.57
2023-05-09T20:56:35.221Z,6.80
2023-05-09T20:59:03.977Z,6.60
2023-05-09T21:01:37.201Z,7.38
2023-05-09T21:04:05.593Z,7.18
2023-05-09T21:06:32.970Z,6.75
2023-05-09T21:08:59.683Z,6.53
2023-05-09T21:11:26.380Z,6.85
2023-05-09T21:13:53.005Z,6.75
2023-05-09T21:16:20.075Z,6.85
2023-05-09T21:18:46.774Z,6.85
2023-05-09T21:21:13.444Z,7.00
2023-05-09T21:23:41.428Z,6.05
2023-05-09T21:26:08.110Z,6.32
2023-05-09T21:28:34.780Z,6.13
2023-05-09T21:31:01.676Z,5.72
2023-05-09T21:33:28.555Z,6.07
2023-05-09T21:35:55.527Z,5.90
2023-05-09T21:38:22.455Z,6.47
2023-05-09T21:40:51.262Z,6.45
2023-05-09T21:43:18.225Z,6.47
2023-05-09T21:45:45.520Z,6.53
2023-05-09T21:48:12.386Z,6.20
2023-05-09T21:50:39.253Z,6.28
2023-05-09T21:53:06.350Z,6.35
2023-05-09T21:55:33.040Z,7.20
2023-05-09T21:57:59.766Z,6.63
2023-05-09T22:00:26.470Z,7.43
2023-05-09T22:02:53.236Z,6.45
2023-05-09T22:05:19.976Z,7.20
2023-05-09T22:07:46.736Z,7.65
2023-05-09T22:10:13.733Z,7.38
2023-05-09T22:12:40.598Z,7.78
2023-05-09T22:15:08.968Z,7.25
2023-05-09T22:17:35.949Z,7.63
2023-05-09T22:20:03.032Z,7.68
2023-05-09T22:22:29.825Z,7.78
2023-05-09T22:24:56.645Z,8.05
2023-05-09T22:27:23.376Z,8.25
2023-05-09T22:29:50.225Z,8.65
2023-05-09T22:32:17.041Z,7.93
2023-05-09T22:34:47.879Z,8.30
2023-05-09T22:37:14.833Z,8.10
2023-05-09T22:39:45.618Z,7.30
2023-05-09T22:42:12.444Z,8.38
2023-05-09T22:44:39.502Z,7.82
2023-05-09T22:47:10.250Z,7.95
2023-05-09T22:49:37.411Z,9.30
2023-05-09T22:52:04.382Z,8.02
2023-05-09T22:54:31.089Z,7.90
2023-05-09T22:56:57.852Z,9.20
2023-05-09T22:59:24.657Z,7.70
2023-05-09T23:01:51.809Z,8.25
2023-05-09T23:04:18.575Z,8.30
2023-05-09T23:06:45.561Z,7.65
2023-05-09T23:09:12.320Z,7.03
2023-05-09T23:11:39.015Z,7.85
2023-05-09T23:14:06.442Z,8.88
2023-05-09T23:16:33.204Z,8.85
2023-05-09T23:19:00.141Z,8.48
2023-05-09T23:21:26.894Z,7.97
2023-05-09T23:23:53.670Z,8.45
2023-05-09T23:26:21.120Z,9.02
2023-05-09T23:28:47.773Z,8.23
2023-05-09T23:31:14.433Z,8.43
2023-05-09T23:33:41.127Z,8.40
2023-05-09T23:36:08.206Z,7.88
2023-05-09T23:38:34.961Z,7.55
2023-05-09T23:41:01.897Z,7.75
2023-05-09T23:43:28.959Z,7.78
2023-05-09T23:45:56.634Z,8.55
2023-05-09T23:48:23.839Z,8.90
2023-05-09T23:50:51.519Z,8.18
2023-05-09T23:53:18.303Z,7.90
2023-05-09T23:55:45.038Z,9.05
2023-05-09T23:58:12.307Z,9.32
